createdAt,value
2022-10-08T00:04:10.208Z,10.13
2022-10-08T00:09:29.577Z,10.02
2022-10-08T00:14:21.950Z,10.05
2022-10-08T00:19:21.915Z,9.97
2022-10-08T00:24:23.684Z,9.89
2022-10-08T00:29:21.769Z,9.83
2022-10-08T00:34:21.707Z,9.76
2022-10-08T00:39:21.654Z,9.64
2022-10-08T00:44:21.562Z,9.56
2022-10-08T00:49:21.505Z,9.48
2022-10-08T00:54:21.443Z,9.48
2022-10-08T00:59:21.529Z,9.41
2022-10-08T01:04:21.424Z,9.28
2022-10-08T01:09:21.230Z,9.22
2022-10-08T01:14:21.169Z,9.13
2022-10-08T01:19:21.116Z,9.10
2022-10-08T01:24:21.030Z,9.06
2022-10-08T01:29:21.041Z,9.02
2022-10-08T01:34:20.907Z,9.02
2022-10-08T01:39:20.846Z,8.94
2022-10-08T01:44:20.755Z,8.89
2022-10-08T01:49:20.709Z,8.87
2022-10-08T01:54:20.970Z,8.88
2022-10-08T01:59:20.570Z,8.91
2022-10-08T02:04:20.494Z,8.94
2022-10-08T02:09:22.254Z,8.89
2022-10-08T02:14:20.375Z,8.87
2022-10-08T02:19:20.489Z,8.79
2022-10-08T02:24:20.226Z,8.71
2022-10-08T02:29:20.176Z,8.64
2022-10-08T02:34:20.106Z,8.58
2022-10-08T02:39:20.025Z,8.52
2022-10-08T02:44:19.959Z,8.49
2022-10-08T02:49:19.903Z,8.49
2022-10-08T02:54:19.820Z,8.49
2022-10-08T02:59:19.781Z,8.49
2022-10-08T03:04:19.738Z,8.53
2022-10-08T03:09:19.650Z,8.53
2022-10-08T03:14:19.734Z,8.56
2022-10-08T03:19:19.503Z,8.51
2022-10-08T03:24:19.433Z,8.49
2022-10-08T03:29:19.359Z,8.46
2022-10-08T03:34:19.296Z,8.41
2022-10-08T03:39:19.223Z,8.42
2022-10-08T03:44:19.163Z,8.33
2022-10-08T03:49:19.094Z,8.27
2022-10-08T03:54:19.058Z,8.24
2022-10-08T03:59:18.951Z,8.27
2022-10-08T04:04:23.053Z,8.31
2022-10-08T04:09:19.819Z,8.33
2022-10-08T04:14:18.743Z,8.30
2022-10-08T04:19:34.179Z,8.26
2022-10-08T04:24:27.205Z,8.27
2022-10-08T04:29:27.022Z,8.20
2022-10-08T04:34:26.915Z,8.20
2022-10-08T04:39:26.870Z,8.19
2022-10-08T04:44:26.822Z,8.15
2022-10-08T04:49:26.750Z,8.16
2022-10-08T04:54:26.693Z,8.12
2022-10-08T04:59:26.608Z,8.08
2022-10-08T05:04:26.575Z,8.08
2022-10-08T05:09:26.484Z,8.03
2022-10-08T05:14:26.406Z,8.08
2022-10-08T05:19:26.342Z,8.15
2022-10-08T05:24:26.288Z,8.19
2022-10-08T05:29:26.224Z,8.19
2022-10-08T05:34:26.155Z,8.26
2022-10-08T05:39:26.088Z,8.37
2022-10-08T05:44:25.997Z,8.53
2022-10-08T05:49:25.939Z,8.64
2022-10-08T05:54:25.875Z,8.78
2022-10-08T05:59:25.805Z,8.92
2022-10-08T06:04:25.757Z,9.11
2022-10-08T06:09:25.679Z,9.26
2022-10-08T06:14:25.631Z,9.37
2022-10-08T06:19:25.530Z,9.50
2022-10-08T06:24:25.473Z,9.54
2022-10-08T06:29:25.402Z,9.54
2022-10-08T06:34:25.345Z,9.68
2022-10-08T06:39:25.270Z,9.83
2022-10-08T06:44:25.194Z,9.89
2022-10-08T06:49:26.677Z,9.94
2022-10-08T06:54:25.074Z,9.91
2022-10-08T06:59:24.975Z,9.91
2022-10-08T07:04:24.954Z,10.01
2022-10-08T07:09:24.869Z,10.13
2022-10-08T07:14:24.786Z,10.12
2022-10-08T07:19:24.732Z,10.13
2022-10-08T07:24:24.661Z,10.22
2022-10-08T07:29:24.603Z,10.23
2022-10-08T07:34:24.527Z,10.34
2022-10-08T07:39:24.456Z,10.40
2022-10-08T07:44:24.400Z,10.49
2022-10-08T07:49:24.383Z,10.60
2022-10-08T07:54:24.268Z,10.63
2022-10-08T07:59:24.195Z,10.79
2022-10-08T08:04:24.122Z,10.93
2022-10-08T08:09:24.050Z,10.96
2022-10-08T08:14:24.044Z,11.04
2022-10-08T08:19:23.948Z,11.30
2022-10-08T08:24:23.858Z,11.50
2022-10-08T08:29:23.918Z,11.66
2022-10-08T08:34:23.742Z,11.84
2022-10-08T08:39:23.657Z,12.15
2022-10-08T08:44:23.688Z,12.15
2022-10-08T08:49:23.517Z,12.15
2022-10-08T08:54:23.438Z,12.02
2022-10-08T08:59:23.469Z,12.02
2022-10-08T09:04:23.319Z,12.12
2022-10-08T09:09:23.242Z,12.24
2022-10-08T09:14:23.254Z,12.72
2022-10-08T09:19:23.298Z,13.63
2022-10-08T09:24:23.065Z,14.28
2022-10-08T09:29:22.977Z,13.93
2022-10-08T09:34:22.926Z,13.57
2022-10-08T09:39:22.845Z,13.53
2022-10-08T09:44:22.777Z,13.52
2022-10-08T09:49:22.723Z,13.77
2022-10-08T09:54:22.654Z,13.75
2022-10-08T09:59:22.595Z,14.22
2022-10-08T10:04:22.513Z,14.84
2022-10-08T10:09:23.837Z,14.70
2022-10-08T10:14:22.383Z,14.45
2022-10-08T10:19:22.304Z,14.23
2022-10-08T10:24:22.308Z,15.46
2022-10-08T10:29:22.138Z,19.44
2022-10-08T10:34:22.121Z,18.08
2022-10-08T10:39:22.021Z,16.08
2022-10-08T10:44:21.981Z,15.44
2022-10-08T10:49:21.905Z,15.22
2022-10-08T10:54:21.830Z,15.75
2022-10-08T10:59:21.816Z,16.61
2022-10-08T11:04:21.719Z,15.72
2022-10-08T11:09:21.669Z,18.86
2022-10-08T11:14:21.550Z,22.11
2022-10-08T11:19:21.512Z,23.25
2022-10-08T11:24:21.494Z,23.59
2022-10-08T11:29:21.357Z,24.65
2022-10-08T11:34:21.628Z,24.81
2022-10-08T11:39:22.032Z,24.45
2022-10-08T11:44:21.202Z,24.42
2022-10-08T11:49:22.633Z,23.98
2022-10-08T11:54:21.021Z,24.42
2022-10-08T11:59:20.956Z,24.77
2022-10-08T12:04:20.907Z,24.66
2022-10-08T12:09:20.794Z,24.03
2022-10-08T12:14:20.745Z,22.76
2022-10-08T12:19:20.682Z,20.10
2022-10-08T12:24:20.641Z,22.15
2022-10-08T12:29:20.560Z,20.78
2022-10-08T12:34:20.474Z,19.89
2022-10-08T12:39:20.409Z,19.04
2022-10-08T12:44:20.798Z,19.22
2022-10-08T12:49:20.291Z,19.58
2022-10-08T12:54:20.212Z,19.19
2022-10-08T12:59:20.131Z,18.86
2022-10-08T13:04:20.088Z,18.75
2022-10-08T13:09:20.031Z,18.35
2022-10-08T13:14:19.969Z,18.38
2022-10-08T13:19:19.921Z,18.44
2022-10-08T13:24:19.811Z,18.41
2022-10-08T13:29:19.761Z,18.33
2022-10-08T13:34:19.705Z,18.63
2022-10-08T13:39:19.579Z,18.58
2022-10-08T13:44:19.534Z,18.56
2022-10-08T13:49:19.589Z,18.52
2022-10-08T13:54:19.404Z,18.23
2022-10-08T13:59:19.315Z,18.33
2022-10-08T14:04:19.263Z,18.47
2022-10-08T14:09:19.195Z,18.53
2022-10-08T14:14:20.671Z,18.45
2022-10-08T14:19:19.135Z,18.28
2022-10-08T14:24:19.014Z,18.26
2022-10-08T14:29:18.929Z,18.11
2022-10-08T14:34:18.853Z,18.00
2022-10-08T14:39:18.805Z,17.83
2022-10-08T14:44:18.719Z,17.74
2022-10-08T14:49:18.676Z,17.59
2022-10-08T14:54:18.678Z,17.46
2022-10-08T14:59:18.513Z,17.22
2022-10-08T15:04:18.458Z,17.04
2022-10-08T15:09:18.410Z,16.96
2022-10-08T15:14:18.311Z,16.81
2022-10-08T15:19:23.530Z,16.78
2022-10-08T15:24:18.194Z,16.57
2022-10-08T15:29:18.146Z,16.35
2022-10-08T15:34:18.017Z,16.12
2022-10-08T15:39:18.060Z,16.02
2022-10-08T15:44:17.905Z,15.84
2022-10-08T15:49:17.821Z,15.58
2022-10-08T15:54:17.787Z,15.44
2022-10-08T15:59:17.721Z,15.35
2022-10-08T16:04:17.636Z,15.15
2022-10-08T16:09:17.612Z,15.02
2022-10-08T16:14:17.495Z,14.82
2022-10-08T16:19:17.615Z,14.65
2022-10-08T16:24:17.398Z,14.45
2022-10-08T16:29:17.327Z,14.32
2022-10-08T16:34:17.351Z,14.08
2022-10-08T16:39:17.178Z,13.87
2022-10-08T16:44:17.095Z,13.70
2022-10-08T16:49:21.282Z,13.44
2022-10-08T16:54:18.071Z,13.15
2022-10-08T16:59:16.949Z,12.87
2022-10-08T17:04:16.818Z,12.68
2022-10-08T17:09:16.755Z,12.49
2022-10-08T17:14:16.682Z,12.27
2022-10-08T17:19:16.641Z,12.06
2022-10-08T17:24:16.564Z,11.78
2022-10-08T17:29:16.469Z,11.66
2022-10-08T17:34:16.430Z,11.59
2022-10-08T17:39:16.334Z,11.51
2022-10-08T17:44:16.298Z,11.33
2022-10-08T17:49:16.234Z,11.18
2022-10-08T17:54:16.154Z,11.04
2022-10-08T17:59:16.099Z,10.93
2022-10-08T18:04:16.004Z,10.87
2022-10-08T18:09:15.978Z,10.74
2022-10-08T18:14:15.885Z,10.67
2022-10-08T18:19:15.821Z,10.60
2022-10-08T18:24:15.738Z,10.49
2022-10-08T18:29:15.687Z,10.40
2022-10-08T18:34:15.741Z,10.28
2022-10-08T18:39:15.588Z,10.26
2022-10-08T18:44:15.486Z,10.23
2022-10-08T18:49:15.421Z,10.16
2022-10-08T18:54:15.332Z,10.13
2022-10-08T18:59:15.279Z,10.13
2022-10-08T19:04:15.218Z,10.05
2022-10-08T19:09:15.143Z,10.10
2022-10-08T19:14:15.099Z,10.15
2022-10-08T19:19:15.027Z,10.13
2022-10-08T19:24:14.929Z,10.01
2022-10-08T19:29:14.894Z,9.92
2022-10-08T19:34:14.795Z,9.77
2022-10-08T19:39:14.737Z,9.65
2022-10-08T19:44:14.755Z,9.58
2022-10-08T19:49:14.613Z,9.50
2022-10-08T19:54:14.546Z,9.56
2022-10-08T19:59:14.479Z,9.64
2022-10-08T20:04:14.410Z,9.66
2022-10-08T20:09:14.344Z,9.77
2022-10-08T20:14:14.268Z,9.73
2022-10-08T20:19:14.215Z,9.47
2022-10-08T20:24:14.132Z,9.34
2022-10-08T20:29:14.053Z,9.28
2022-10-08T20:34:14.003Z,9.18
2022-10-08T20:39:14.005Z,9.08
2022-10-08T20:44:13.866Z,8.97
2022-10-08T20:49:13.791Z,8.92
2022-10-08T20:54:13.737Z,8.95
2022-10-08T20:59:13.648Z,8.91
2022-10-08T21:04:13.594Z,8.84
2022-10-08T21:09:13.516Z,8.81
2022-10-08T21:14:13.470Z,8.67
2022-10-08T21:19:13.377Z,8.69
2022-10-08T21:24:13.348Z,8.64
2022-10-08T21:29:13.236Z,8.48
2022-10-08T21:34:13.286Z,8.38
2022-10-08T21:39:13.140Z,8.23
2022-10-08T21:44:13.051Z,8.19
2022-10-08T21:49:13.031Z,8.15
2022-10-08T21:54:12.957Z,8.09
2022-10-08T21:59:12.844Z,8.03
2022-10-08T22:04:12.802Z,8.01
2022-10-08T22:09:12.745Z,8.03
2022-10-08T22:14:12.658Z,7.95
2022-10-08T22:19:12.591Z,7.95
2022-10-08T22:24:12.515Z,7.94
2022-10-08T22:29:12.453Z,7.87
2022-10-08T22:34:12.417Z,7.80
2022-10-08T22:39:12.328Z,7.79
2022-10-08T22:44:12.265Z,7.76
2022-10-08T22:49:12.222Z,7.73
2022-10-08T22:54:12.131Z,7.63
2022-10-08T22:59:12.081Z,7.58
2022-10-08T23:04:11.985Z,7.66
2022-10-08T23:09:11.912Z,7.63
2022-10-08T23:14:11.839Z,7.61
2022-10-08T23:19:11.766Z,7.58
2022-10-08T23:24:11.723Z,7.50
2022-10-08T23:29:11.644Z,7.38
2022-10-08T23:34:11.569Z,7.36
2022-10-08T23:39:11.502Z,7.35
2022-10-08T23:44:11.447Z,7.23
2022-10-08T23:49:11.366Z,7.14
2022-10-08T23:54:11.323Z,7.07
2022-10-08T23:59:11.243Z,7.00
